createdAt,value
2017-04-11T00:00:00.500Z,13.41
2017-04-11T00:00:04.810Z,13.41
2017-04-11T00:00:09.048Z,13.44
2017-04-11T00:00:13.478Z,13.39
2017-04-11T00:00:17.669Z,13.38
2017-04-11T00:00:22.087Z,13.48
2017-04-11T00:00:26.514Z,13.44
2017-04-11T00:00:30.935Z,13.35
2017-04-11T00:00:35.239Z,13.43
2017-04-11T00:00:39.550Z,13.44
2017-04-11T00:00:43.988Z,13.44
2017-04-11T00:00:48.330Z,13.35
2017-04-11T00:00:52.755Z,13.41
2017-04-11T00:00:57.057Z,13.47
2017-04-11T00:01:01.488Z,13.5
2017-04-11T00:01:05.918Z,13.35
2017-04-11T00:01:10.351Z,13.36
2017-04-11T00:01:14.790Z,13.44
2017-04-11T00:01:19.259Z,13.36
2017-04-11T00:01:23.573Z,13.39
2017-04-11T00:01:28.005Z,13.28
2017-04-11T00:01:32.436Z,13.39
2017-04-11T00:01:36.869Z,13.35
2017-04-11T00:01:41.301Z,13.43
2017-04-11T00:01:45.743Z,13.44
2017-04-11T00:01:50.046Z,13.38
2017-04-11T00:01:54.473Z,13.39
2017-04-11T00:01:58.892Z,13.29
2017-04-11T00:02:03.325Z,13.39
2017-04-11T00:02:07.764Z,13.39
2017-04-11T00:02:12.190Z,13.39
2017-04-11T00:02:16.503Z,13.39
2017-04-11T00:02:20.928Z,13.36
2017-04-11T00:02:25.241Z,13.35
2017-04-11T00:02:29.673Z,13.32
2017-04-11T00:02:33.989Z,13.38
2017-04-11T00:02:38.314Z,13.36
2017-04-11T00:02:42.749Z,13.28
2017-04-11T00:02:47.068Z,13.35
2017-04-11T00:02:51.539Z,13.31
2017-04-11T00:02:55.970Z,13.28
2017-04-11T00:03:00.401Z,13.29
2017-04-11T00:03:04.821Z,13.28
2017-04-11T00:03:09.252Z,13.25
2017-04-11T00:03:13.696Z,13.36
2017-04-11T00:03:18.010Z,13.27
2017-04-11T00:03:22.442Z,13.24
2017-04-11T00:03:26.637Z,13.22
2017-04-11T00:03:31.088Z,13.32
2017-04-11T00:03:35.280Z,13.27
2017-04-11T00:03:39.609Z,13.28
2017-04-11T00:03:44.044Z,13.21
2017-04-11T00:03:48.468Z,13.25
2017-04-11T00:03:52.896Z,13.22
2017-04-11T00:03:57.334Z,13.24
2017-04-11T00:04:01.765Z,13.25
2017-04-11T00:04:06.190Z,13.27
2017-04-11T00:04:10.496Z,13.25
2017-04-11T00:04:14.936Z,13.25
2017-04-11T00:04:19.245Z,13.25
2017-04-11T00:04:23.669Z,13.22
2017-04-11T00:04:28.099Z,13.22
2017-04-11T00:04:32.414Z,13.25
2017-04-11T00:04:36.845Z,13.22
2017-04-11T00:04:41.035Z,13.22
2017-04-11T00:04:45.342Z,13.27
2017-04-11T00:04:49.771Z,13.31
2017-04-11T00:04:54.204Z,13.31
2017-04-11T00:04:58.628Z,13.28
2017-04-11T00:05:02.942Z,13.24
2017-04-11T00:05:07.373Z,13.21
2017-04-11T00:05:11.682Z,13.27
2017-04-11T00:05:16.002Z,13.24
2017-04-11T00:05:20.444Z,13.25
2017-04-11T00:05:24.758Z,13.16
2017-04-11T00:05:29.188Z,13.25
2017-04-11T00:05:33.502Z,13.22
2017-04-11T00:05:37.811Z,13.27
2017-04-11T00:05:42.014Z,13.24
2017-04-11T00:05:46.214Z,13.22
2017-04-11T00:05:50.402Z,13.29
2017-04-11T00:05:54.829Z,13.21
2017-04-11T00:05:59.143Z,13.14
2017-04-11T00:06:03.847Z,13.17
2017-04-11T00:06:08.163Z,13.16
2017-04-11T00:06:12.474Z,13.19
2017-04-11T00:06:16.900Z,13.25
2017-04-11T00:06:21.208Z,13.22
2017-04-11T00:06:25.526Z,13.21
2017-04-11T00:06:29.960Z,13.24
2017-04-11T00:06:34.271Z,13.19
2017-04-11T00:06:38.697Z,13.14
2017-04-11T00:06:42.895Z,13.14
2017-04-11T00:06:47.096Z,13.19
2017-04-11T00:06:51.522Z,13.25
2017-04-11T00:06:55.834Z,13.21
2017-04-11T00:07:00.264Z,13.25
2017-04-11T00:07:04.499Z,13.28
2017-04-11T00:07:08.938Z,13.12
2017-04-11T00:07:13.255Z,13.16
2017-04-11T00:07:17.691Z,13.19
2017-04-11T00:07:22.003Z,13.24
2017-04-11T00:07:26.308Z,13.25
2017-04-11T00:07:30.630Z,13.19
2017-04-11T00:07:34.951Z,13.17
2017-04-11T00:07:39.390Z,13.21
2017-04-11T00:07:43.832Z,13.24
2017-04-11T00:07:48.276Z,13.12
2017-04-11T00:07:52.596Z,13.16
2017-04-11T00:07:56.797Z,13.14
2017-04-11T00:08:01.116Z,13.17
2017-04-11T00:08:05.439Z,13.14
2017-04-11T00:08:09.647Z,13.12
2017-04-11T00:08:13.965Z,13.21
2017-04-11T00:08:18.396Z,13.13
2017-04-11T00:08:22.727Z,13.09
2017-04-11T00:08:27.047Z,13.09
2017-04-11T00:08:31.479Z,13.1
2017-04-11T00:08:35.912Z,13.07
2017-04-11T00:08:40.244Z,13.09
2017-04-11T00:08:44.683Z,13.16
2017-04-11T00:08:48.880Z,13.16
2017-04-11T00:08:53.322Z,13.09
2017-04-11T00:08:57.645Z,13.13
2017-04-11T00:09:01.926Z,13.09
2017-04-11T00:09:06.239Z,13.1
2017-04-11T00:09:10.660Z,13.1
2017-04-11T00:09:15.096Z,13.1
2017-04-11T00:09:19.527Z,13.07
2017-04-11T00:09:23.730Z,13.09
2017-04-11T00:09:28.155Z,13.16
2017-04-11T00:09:32.475Z,13.06
2017-04-11T00:09:36.550Z,13.09
2017-04-11T00:09:40.861Z,13.1
2017-04-11T00:09:45.285Z,13.03
2017-04-11T00:09:49.602Z,13.1
2017-04-11T00:09:53.943Z,13.06
2017-04-11T00:09:58.019Z,13.06
2017-04-11T00:10:02.440Z,13.04
2017-04-11T00:10:06.772Z,12.99
2017-04-11T00:10:11.119Z,13.01
2017-04-11T00:10:15.434Z,13.03
2017-04-11T00:10:19.859Z,13.03
2017-04-11T00:10:24.064Z,12.99
2017-04-11T00:10:28.367Z,13.04
2017-04-11T00:10:32.331Z,12.99
2017-04-11T00:10:36.528Z,12.99
2017-04-11T00:10:40.842Z,12.96
2017-04-11T00:10:45.151Z,12.96
2017-04-11T00:10:49.462Z,12.99
2017-04-11T00:10:53.540Z,12.99
2017-04-11T00:10:57.970Z,12.94
2017-04-11T00:11:02.503Z,13.04
2017-04-11T00:11:06.929Z,12.95
2017-04-11T00:11:11.250Z,12.95
2017-04-11T00:11:15.686Z,12.92
2017-04-11T00:11:20.120Z,12.96
2017-04-11T00:11:24.309Z,12.95
2017-04-11T00:11:28.730Z,12.96
2017-04-11T00:11:33.156Z,12.94
2017-04-11T00:11:37.231Z,12.95
2017-04-11T00:11:41.652Z,13.01
2017-04-11T00:11:46.078Z,12.95
2017-04-11T00:11:50.510Z,12.95
2017-04-11T00:11:54.982Z,12.95
2017-04-11T00:11:59.411Z,12.96
2017-04-11T00:12:03.836Z,12.95
2017-04-11T00:12:08.152Z,12.96
2017-04-11T00:12:12.585Z,12.94
2017-04-11T00:12:17.010Z,12.91
2017-04-11T00:12:21.317Z,12.96
2017-04-11T00:12:25.630Z,12.94
2017-04-11T00:12:30.052Z,12.94
2017-04-11T00:12:34.477Z,12.94
2017-04-11T00:12:38.786Z,12.94
2017-04-11T00:12:43.217Z,12.88
2017-04-11T00:12:47.644Z,12.91
2017-04-11T00:12:52.063Z,12.91
2017-04-11T00:12:56.492Z,12.89
2017-04-11T00:13:00.917Z,12.92
2017-04-11T00:13:05.423Z,12.92
2017-04-11T00:13:09.726Z,12.89
2017-04-11T00:13:14.157Z,12.92
2017-04-11T00:13:18.590Z,12.89
2017-04-11T00:13:22.915Z,12.88
2017-04-11T00:13:27.222Z,12.85
2017-04-11T00:13:31.645Z,12.89
2017-04-11T00:13:36.070Z,12.81
2017-04-11T00:13:40.380Z,12.87
2017-04-11T00:13:44.562Z,12.85
2017-04-11T00:13:48.868Z,12.85
2017-04-11T00:13:53.361Z,12.87
2017-04-11T00:13:57.550Z,12.8
2017-04-11T00:14:02.223Z,12.88
2017-04-11T00:14:06.531Z,12.88
2017-04-11T00:14:10.969Z,12.87
2017-04-11T00:14:15.386Z,12.85
2017-04-11T00:14:19.810Z,12.91
2017-04-11T00:14:24.234Z,12.85
2017-04-11T00:14:28.661Z,12.84
2017-04-11T00:14:33.087Z,12.88
2017-04-11T00:14:37.390Z,12.8
2017-04-11T00:14:41.821Z,12.84
2017-04-11T00:14:46.241Z,12.77
2017-04-11T00:14:50.663Z,12.81
2017-04-11T00:14:55.084Z,12.79
2017-04-11T00:14:59.516Z,12.8
2017-04-11T00:15:03.874Z,12.81
2017-04-11T00:15:08.310Z,12.8
2017-04-11T00:15:12.745Z,12.81
2017-04-11T00:15:17.213Z,12.77
2017-04-11T00:15:21.635Z,12.7
2017-04-11T00:15:26.060Z,12.8
2017-04-11T00:15:30.488Z,12.79
2017-04-11T00:15:34.805Z,12.76
2017-04-11T00:15:39.109Z,12.76
2017-04-11T00:15:43.539Z,12.8
2017-04-11T00:15:48.003Z,12.85
2017-04-11T00:15:52.429Z,12.79
2017-04-11T00:15:56.858Z,12.81
2017-04-11T00:16:01.288Z,12.84
2017-04-11T00:16:05.852Z,12.73
2017-04-11T00:16:10.157Z,12.84
2017-04-11T00:16:14.584Z,12.74
2017-04-11T00:16:18.768Z,12.79
2017-04-11T00:16:23.197Z,12.74
2017-04-11T00:16:27.504Z,12.8
2017-04-11T00:16:31.813Z,12.77
2017-04-11T00:16:36.125Z,12.8
2017-04-11T00:16:40.434Z,12.74
2017-04-11T00:16:44.856Z,12.74
2017-04-11T00:16:49.163Z,12.77
2017-04-11T00:16:53.588Z,12.77
2017-04-11T00:16:58.056Z,12.74
2017-04-11T00:17:02.684Z,12.74
2017-04-11T00:17:06.990Z,12.8
2017-04-11T00:17:11.305Z,12.79
2017-04-11T00:17:15.771Z,12.69
2017-04-11T00:17:20.078Z,12.73
2017-04-11T00:17:24.379Z,12.74
2017-04-11T00:17:28.811Z,12.73
2017-04-11T00:17:33.123Z,12.71
2017-04-11T00:17:37.557Z,12.73
2017-04-11T00:17:41.880Z,12.7
2017-04-11T00:17:46.316Z,12.7
2017-04-11T00:17:50.735Z,12.73
2017-04-11T00:17:55.158Z,12.76
2017-04-11T00:17:59.582Z,12.76
2017-04-11T00:18:04.163Z,12.71
2017-04-11T00:18:08.587Z,12.71
2017-04-11T00:18:12.776Z,12.69
2017-04-11T00:18:17.093Z,12.7
2017-04-11T00:18:21.581Z,12.7
2017-04-11T00:18:26.013Z,12.76
2017-04-11T00:18:30.439Z,12.73
2017-04-11T00:18:34.745Z,12.73
2017-04-11T00:18:39.216Z,12.71
2017-04-11T00:18:43.524Z,12.73
2017-04-11T00:18:47.949Z,12.74
2017-04-11T00:18:52.384Z,12.7
2017-04-11T00:18:56.818Z,12.7
2017-04-11T00:19:01.243Z,12.71
2017-04-11T00:19:05.821Z,12.63
2017-04-11T00:19:10.272Z,12.62
2017-04-11T00:19:14.591Z,12.73
2017-04-11T00:19:18.778Z,12.73
2017-04-11T00:19:23.206Z,12.73
2017-04-11T00:19:27.666Z,12.62
2017-04-11T00:19:32.090Z,12.7
2017-04-11T00:19:36.284Z,12.62
2017-04-11T00:19:40.709Z,12.63
2017-04-11T00:19:45.019Z,12.67
2017-04-11T00:19:49.447Z,12.79
2017-04-11T00:19:53.869Z,12.69
2017-04-11T00:19:58.303Z,12.63
2017-04-11T00:20:02.499Z,12.71
2017-04-11T00:20:06.932Z,12.7
2017-04-11T00:20:11.122Z,12.62
2017-04-11T00:20:15.549Z,12.74
2017-04-11T00:20:19.978Z,12.62
2017-04-11T00:20:24.409Z,12.62
2017-04-11T00:20:28.712Z,12.7
2017-04-11T00:20:33.143Z,12.63
2017-04-11T00:20:37.574Z,12.62
2017-04-11T00:20:41.884Z,12.66
2017-04-11T00:20:46.194Z,12.66
2017-04-11T00:20:50.622Z,12.66
2017-04-11T00:20:55.053Z,12.69
2017-04-11T00:20:59.359Z,12.66
2017-04-11T00:21:03.979Z,12.67
2017-04-11T00:21:08.413Z,12.69
2017-04-11T00:21:12.855Z,12.66
2017-04-11T00:21:17.157Z,12.61
2017-04-11T00:21:21.592Z,12.63
2017-04-11T00:21:25.944Z,12.62
2017-04-11T00:21:30.365Z,12.66
2017-04-11T00:21:34.669Z,12.63
2017-04-11T00:21:39.099Z,12.66
2017-04-11T00:21:43.410Z,12.69
2017-04-11T00:21:47.599Z,12.7
2017-04-11T00:21:51.916Z,12.59
2017-04-11T00:21:56.340Z,12.66
2017-04-11T00:22:00.806Z,12.66
2017-04-11T00:22:05.260Z,12.62
2017-04-11T00:22:09.571Z,12.63
2017-04-11T00:22:14.001Z,12.66
2017-04-11T00:22:18.429Z,12.67
2017-04-11T00:22:22.852Z,12.61
2017-04-11T00:22:27.273Z,12.62
2017-04-11T00:22:31.714Z,12.67
2017-04-11T00:22:35.907Z,12.71
2017-04-11T00:22:40.333Z,12.66
2017-04-11T00:22:44.635Z,12.62
2017-04-11T00:22:48.942Z,12.7
2017-04-11T00:22:53.367Z,12.66
2017-04-11T00:22:57.785Z,12.66
2017-04-11T00:23:02.564Z,12.69
2017-04-11T00:23:06.992Z,12.7
2017-04-11T00:23:11.301Z,12.66
2017-04-11T00:23:15.730Z,12.62
2017-04-11T00:23:20.043Z,12.69
2017-04-11T00:23:24.467Z,12.73
2017-04-11T00:23:28.894Z,12.7
2017-04-11T00:23:33.199Z,12.66
2017-04-11T00:23:37.512Z,12.69
2017-04-11T00:23:41.815Z,12.66
2017-04-11T00:23:46.241Z,12.69
2017-04-11T00:23:50.669Z,12.7
2017-04-11T00:23:55.092Z,12.67
2017-04-11T00:23:59.422Z,12.67
2017-04-11T00:24:03.912Z,12.66
2017-04-11T00:24:08.103Z,12.63
2017-04-11T00:24:12.538Z,12.66
2017-04-11T00:24:16.965Z,12.62
2017-04-11T00:24:21.384Z,12.67
2017-04-11T00:24:25.694Z,12.63
2017-04-11T00:24:30.112Z,12.66
2017-04-11T00:24:34.538Z,12.62
2017-04-11T00:24:38.958Z,12.58
2017-04-11T00:24:43.381Z,12.63
2017-04-11T00:24:47.806Z,12.63
2017-04-11T00:24:52.236Z,12.59
2017-04-11T00:24:56.654Z,12.71
2017-04-11T00:25:01.078Z,12.58
2017-04-11T00:25:05.391Z,12.67
2017-04-11T00:25:09.817Z,12.71
2017-04-11T00:25:14.241Z,12.61
2017-04-11T00:25:18.668Z,12.66
2017-04-11T00:25:22.858Z,12.7
2017-04-11T00:25:27.318Z,12.62
2017-04-11T00:25:31.740Z,12.61
2017-04-11T00:25:36.164Z,12.56
2017-04-11T00:25:40.470Z,12.71
2017-04-11T00:25:44.896Z,12.62
2017-04-11T00:25:49.208Z,12.56
2017-04-11T00:25:53.644Z,12.62
2017-04-11T00:25:57.952Z,12.58
2017-04-11T00:26:02.588Z,12.66
2017-04-11T00:26:06.899Z,12.59
2017-04-11T00:26:11.206Z,12.61
2017-04-11T00:26:15.637Z,12.63
2017-04-11T00:26:19.945Z,12.56
2017-04-11T00:26:24.365Z,12.55
2017-04-11T00:26:28.787Z,12.54
2017-04-11T00:26:33.218Z,12.62
2017-04-11T00:26:37.642Z,12.66
2017-04-11T00:26:41.953Z,12.58
2017-04-11T00:26:46.377Z,12.58
2017-04-11T00:26:50.812Z,12.67
2017-04-11T00:26:55.242Z,12.54
2017-04-11T00:26:59.662Z,12.59
2017-04-11T00:27:04.075Z,12.56
2017-04-11T00:27:08.407Z,12.59
2017-04-11T00:27:12.831Z,12.62
2017-04-11T00:27:17.260Z,12.56
2017-04-11T00:27:21.691Z,12.61
2017-04-11T00:27:26.116Z,12.48
2017-04-11T00:27:30.539Z,12.59
2017-04-11T00:27:34.848Z,12.56
2017-04-11T00:27:39.275Z,12.51
2017-04-11T00:27:43.699Z,12.58
2017-04-11T00:27:47.999Z,12.54
2017-04-11T00:27:52.417Z,12.54
2017-04-11T00:27:56.724Z,12.51
2017-04-11T00:28:01.146Z,12.61
2017-04-11T00:28:05.670Z,12.58
2017-04-11T00:28:09.974Z,12.61
2017-04-11T00:28:14.408Z,12.51
2017-04-11T00:28:18.716Z,12.54
2017-04-11T00:28:23.138Z,12.55
2017-04-11T00:28:27.568Z,12.59
2017-04-11T00:28:31.997Z,12.58
2017-04-11T00:28:36.301Z,12.63
2017-04-11T00:28:40.720Z,12.48
2017-04-11T00:28:45.148Z,12.62
2017-04-11T00:28:49.611Z,12.61
2017-04-11T00:28:53.802Z,12.58
2017-04-11T00:28:58.112Z,12.62
2017-04-11T00:29:02.520Z,12.61
2017-04-11T00:29:06.954Z,12.56
2017-04-11T00:29:11.378Z,12.58
2017-04-11T00:29:15.803Z,12.61
2017-04-11T00:29:20.125Z,12.54
2017-04-11T00:29:24.551Z,12.58
2017-04-11T00:29:28.975Z,12.54
2017-04-11T00:29:33.407Z,12.54
2017-04-11T00:29:37.829Z,12.59
2017-04-11T00:29:42.249Z,12.48
2017-04-11T00:29:46.685Z,12.56
2017-04-11T00:29:50.873Z,12.51
2017-04-11T00:29:55.301Z,12.58
2017-04-11T00:29:59.613Z,12.49
2017-04-11T00:30:04.222Z,12.58
2017-04-11T00:30:08.529Z,12.54
2017-04-11T00:30:12.958Z,12.54
2017-04-11T00:30:17.270Z,12.61
2017-04-11T00:30:21.698Z,12.55
2017-04-11T00:30:26.125Z,12.58
2017-04-11T00:30:30.548Z,12.55
2017-04-11T00:30:34.973Z,12.49
2017-04-11T00:30:39.047Z,12.54
2017-04-11T00:30:43.353Z,12.58
2017-04-11T00:30:47.658Z,12.54
2017-04-11T00:30:52.083Z,12.56
2017-04-11T00:30:56.404Z,12.48
2017-04-11T00:31:00.712Z,12.54
2017-04-11T00:31:05.392Z,12.56
2017-04-11T00:31:09.715Z,12.52
2017-04-11T00:31:14.187Z,12.58
2017-04-11T00:31:18.617Z,12.62
2017-04-11T00:31:23.047Z,12.56
2017-04-11T00:31:27.354Z,12.52
2017-04-11T00:31:31.834Z,12.55
2017-04-11T00:31:36.261Z,12.52
2017-04-11T00:31:40.562Z,12.63
2017-04-11T00:31:44.880Z,12.52
2017-04-11T00:31:49.337Z,12.54
2017-04-11T00:31:53.649Z,12.52
2017-04-11T00:31:57.954Z,12.51
2017-04-11T00:32:02.388Z,12.55
2017-04-11T00:32:06.830Z,12.58
2017-04-11T00:32:11.138Z,12.54
2017-04-11T00:32:15.455Z,12.56
2017-04-11T00:32:19.887Z,12.48
2017-04-11T00:32:24.365Z,12.56
2017-04-11T00:32:28.785Z,12.51
2017-04-11T00:32:33.208Z,12.52
2017-04-11T00:32:37.637Z,12.55
2017-04-11T00:32:42.075Z,12.54
2017-04-11T00:32:46.262Z,12.52
2017-04-11T00:32:50.695Z,12.61
2017-04-11T00:32:55.128Z,12.58
2017-04-11T00:32:59.437Z,12.54
2017-04-11T00:33:03.858Z,12.52
2017-04-11T00:33:08.173Z,12.56
2017-04-11T00:33:12.615Z,12.54
2017-04-11T00:33:16.953Z,12.52
2017-04-11T00:33:21.384Z,12.54
2017-04-11T00:33:25.804Z,12.56
2017-04-11T00:33:30.235Z,12.54
2017-04-11T00:33:34.663Z,12.59
2017-04-11T00:33:39.091Z,12.56
2017-04-11T00:33:43.401Z,12.51
2017-04-11T00:33:47.830Z,12.54
2017-04-11T00:33:52.268Z,12.58
2017-04-11T00:33:56.698Z,12.59
2017-04-11T00:34:01.125Z,12.54
2017-04-11T00:34:05.442Z,12.56
2017-04-11T00:34:09.756Z,12.56
2017-04-11T00:34:14.066Z,12.51
2017-04-11T00:34:18.493Z,12.58
2017-04-11T00:34:22.918Z,12.55
2017-04-11T00:34:27.344Z,12.58
2017-04-11T00:34:31.769Z,12.58
2017-04-11T00:34:36.195Z,12.59
2017-04-11T00:34:40.386Z,12.59
2017-04-11T00:34:44.811Z,12.54
2017-04-11T00:34:49.232Z,12.52
2017-04-11T00:34:53.663Z,12.58
2017-04-11T00:34:58.096Z,12.59
2017-04-11T00:35:02.525Z,12.58
2017-04-11T00:35:06.835Z,12.58
2017-04-11T00:35:11.146Z,12.59
2017-04-11T00:35:15.581Z,12.56
2017-04-11T00:35:20.014Z,12.54
2017-04-11T00:35:24.329Z,12.51
2017-04-11T00:35:28.749Z,12.58
2017-04-11T00:35:33.184Z,12.51
2017-04-11T00:35:37.492Z,12.54
2017-04-11T00:35:41.917Z,12.61
2017-04-11T00:35:46.341Z,12.54
2017-04-11T00:35:50.663Z,12.54
2017-04-11T00:35:55.083Z,12.56
2017-04-11T00:35:59.156Z,12.61
2017-04-11T00:36:03.742Z,12.58
2017-04-11T00:36:08.055Z,12.52
2017-04-11T00:36:12.359Z,12.55
2017-04-11T00:36:16.778Z,12.54
2017-04-11T00:36:21.208Z,12.51
2017-04-11T00:36:25.638Z,12.56
2017-04-11T00:36:30.065Z,12.56
2017-04-11T00:36:34.488Z,12.58
2017-04-11T00:36:38.686Z,12.55
2017-04-11T00:36:43.118Z,12.62
2017-04-11T00:36:47.548Z,12.52
2017-04-11T00:36:51.974Z,12.58
2017-04-11T00:36:56.402Z,12.61
2017-04-11T00:37:00.835Z,12.55
2017-04-11T00:37:05.148Z,12.61
2017-04-11T00:37:09.460Z,12.55
2017-04-11T00:37:13.892Z,12.51
2017-04-11T00:37:18.317Z,12.58
2017-04-11T00:37:22.739Z,12.56
2017-04-11T00:37:27.168Z,12.58
2017-04-11T00:37:31.599Z,12.55
2017-04-11T00:37:35.906Z,12.58
2017-04-11T00:37:40.329Z,12.51
2017-04-11T00:37:44.659Z,12.58
2017-04-11T00:37:48.855Z,12.54
2017-04-11T00:37:53.292Z,12.52
2017-04-11T00:37:57.718Z,12.59
2017-04-11T00:38:02.143Z,12.54
2017-04-11T00:38:06.567Z,12.58
2017-04-11T00:38:11.004Z,12.56
2017-04-11T00:38:15.480Z,12.54
2017-04-11T00:38:19.906Z,12.55
2017-04-11T00:38:24.333Z,12.56
2017-04-11T00:38:28.765Z,12.52
2017-04-11T00:38:33.197Z,12.54
2017-04-11T00:38:37.388Z,12.58
2017-04-11T00:38:41.570Z,12.54
2017-04-11T00:38:45.888Z,12.48
2017-04-11T00:38:50.360Z,12.56
2017-04-11T00:38:54.783Z,12.58
2017-04-11T00:38:59.204Z,12.58
2017-04-11T00:39:03.629Z,12.49
2017-04-11T00:39:08.057Z,12.56
2017-04-11T00:39:12.490Z,12.49
2017-04-11T00:39:16.919Z,12.54
2017-04-11T00:39:21.120Z,12.58
2017-04-11T00:39:25.596Z,12.56
2017-04-11T00:39:30.022Z,12.54
2017-04-11T00:39:34.447Z,12.58
2017-04-11T00:39:38.877Z,12.54
2017-04-11T00:39:43.185Z,12.48
2017-04-11T00:39:47.612Z,12.51
2017-04-11T00:39:52.044Z,12.49
2017-04-11T00:39:56.472Z,12.56
2017-04-11T00:40:00.904Z,12.54
2017-04-11T00:40:05.388Z,12.54
2017-04-11T00:40:09.824Z,12.51
2017-04-11T00:40:14.248Z,12.58
2017-04-11T00:40:18.572Z,12.56
2017-04-11T00:40:22.997Z,12.51
2017-04-11T00:40:27.305Z,12.56
2017-04-11T00:40:31.771Z,12.54
2017-04-11T00:40:36.193Z,12.49
2017-04-11T00:40:40.388Z,12.55
2017-04-11T00:40:44.829Z,12.49
2017-04-11T00:40:49.139Z,12.51
2017-04-11T00:40:53.572Z,12.49
2017-04-11T00:40:57.883Z,12.49
2017-04-11T00:41:02.317Z,12.51
2017-04-11T00:41:06.752Z,12.56
2017-04-11T00:41:11.177Z,12.59
2017-04-11T00:41:15.598Z,12.56
2017-04-11T00:41:19.916Z,12.59
2017-04-11T00:41:24.344Z,12.55
2017-04-11T00:41:28.770Z,12.58
2017-04-11T00:41:33.194Z,12.54
2017-04-11T00:41:37.543Z,12.59
2017-04-11T00:41:41.968Z,12.58
2017-04-11T00:41:46.398Z,12.59
2017-04-11T00:41:50.828Z,12.52
2017-04-11T00:41:55.607Z,12.52
2017-04-11T00:42:00.037Z,12.56
2017-04-11T00:42:04.718Z,12.55
2017-04-11T00:42:09.161Z,12.59
2017-04-11T00:42:13.353Z,12.54
2017-04-11T00:42:17.775Z,12.51
2017-04-11T00:42:22.204Z,12.61
2017-04-11T00:42:26.682Z,12.49
2017-04-11T00:42:31.119Z,12.51
2017-04-11T00:42:35.546Z,12.56
2017-04-11T00:42:39.977Z,12.55
2017-04-11T00:42:44.422Z,12.55
2017-04-11T00:42:48.852Z,12.51
2017-04-11T00:42:53.289Z,12.54
2017-04-11T00:42:57.714Z,12.59
2017-04-11T00:43:02.077Z,12.56
2017-04-11T00:43:06.386Z,12.52
2017-04-11T00:43:10.813Z,12.58
2017-04-11T00:43:15.134Z,12.58
2017-04-11T00:43:19.443Z,12.59
2017-04-11T00:43:23.878Z,12.56
2017-04-11T00:43:28.313Z,12.58
2017-04-11T00:43:32.765Z,12.58
2017-04-11T00:43:37.085Z,12.55
2017-04-11T00:43:41.391Z,12.56
2017-04-11T00:43:45.826Z,12.52
2017-04-11T00:43:50.142Z,12.55
2017-04-11T00:43:54.455Z,12.49
2017-04-11T00:43:58.768Z,12.55
2017-04-11T00:44:03.398Z,12.55
2017-04-11T00:44:07.598Z,12.55
2017-04-11T00:44:11.908Z,12.55
2017-04-11T00:44:16.359Z,12.49
2017-04-11T00:44:20.801Z,12.52
2017-04-11T00:44:25.235Z,12.51
2017-04-11T00:44:29.668Z,12.51
2017-04-11T00:44:34.102Z,12.51
2017-04-11T00:44:38.418Z,12.46
2017-04-11T00:44:42.849Z,12.52
2017-04-11T00:44:47.155Z,12.48
2017-04-11T00:44:51.577Z,12.54
2017-04-11T00:44:56.005Z,12.52
2017-04-11T00:45:00.455Z,12.51
2017-04-11T00:45:04.939Z,12.49
2017-04-11T00:45:09.257Z,12.46
2017-04-11T00:45:13.689Z,12.49
2017-04-11T00:45:18.117Z,12.48
2017-04-11T00:45:22.544Z,12.49
2017-04-11T00:45:26.964Z,12.48
2017-04-11T00:45:31.048Z,12.46
2017-04-11T00:45:35.480Z,12.49
2017-04-11T00:45:39.789Z,12.48
2017-04-11T00:45:44.104Z,12.48
2017-04-11T00:45:48.416Z,12.49
2017-04-11T00:45:52.764Z,12.46
2017-04-11T00:45:57.188Z,12.46
2017-04-11T00:46:01.613Z,12.46
2017-04-11T00:46:06.052Z,12.48
2017-04-11T00:46:10.359Z,12.48
2017-04-11T00:46:14.789Z,12.49
2017-04-11T00:46:19.214Z,12.43
2017-04-11T00:46:23.414Z,12.41
2017-04-11T00:46:27.858Z,12.44
2017-04-11T00:46:32.285Z,12.34
2017-04-11T00:46:36.591Z,12.34
2017-04-11T00:46:40.900Z,12.52
2017-04-11T00:46:45.325Z,12.4
2017-04-11T00:46:49.753Z,12.48
2017-04-11T00:46:54.181Z,12.41
2017-04-11T00:46:58.747Z,12.3
2017-04-11T00:47:03.321Z,12.46
2017-04-11T00:47:07.747Z,12.43
2017-04-11T00:47:12.192Z,12.48
2017-04-11T00:47:16.512Z,12.51
2017-04-11T00:47:20.945Z,12.37
2017-04-11T00:47:25.136Z,12.36
2017-04-11T00:47:29.570Z,12.43
2017-04-11T00:47:33.920Z,12.41
2017-04-11T00:47:38.350Z,12.37
2017-04-11T00:47:42.663Z,12.43
2017-04-11T00:47:47.102Z,12.44
2017-04-11T00:47:51.348Z,12.41
2017-04-11T00:47:55.667Z,12.34
2017-04-11T00:48:00.105Z,12.36
2017-04-11T00:48:04.546Z,12.4
2017-04-11T00:48:08.862Z,12.37
2017-04-11T00:48:13.289Z,12.31
2017-04-11T00:48:17.605Z,12.36
2017-04-11T00:48:22.083Z,12.37
2017-04-11T00:48:26.399Z,12.36
2017-04-11T00:48:30.832Z,12.34
2017-04-11T00:48:35.265Z,12.36
2017-04-11T00:48:39.584Z,12.37
2017-04-11T00:48:44.009Z,12.36
2017-04-11T00:48:48.445Z,12.36
2017-04-11T00:48:52.879Z,12.34
2017-04-11T00:48:57.316Z,12.37
2017-04-11T00:49:01.750Z,12.37
2017-04-11T00:49:06.179Z,12.41
2017-04-11T00:49:10.505Z,12.36
2017-04-11T00:49:14.761Z,12.31
2017-04-11T00:49:19.088Z,12.36
2017-04-11T00:49:23.535Z,12.37
2017-04-11T00:49:27.970Z,12.38
2017-04-11T00:49:32.398Z,12.36
2017-04-11T00:49:36.833Z,12.36
2017-04-11T00:49:41.264Z,12.37
2017-04-11T00:49:45.457Z,12.37
2017-04-11T00:49:49.770Z,12.29
2017-04-11T00:49:53.848Z,12.29
2017-04-11T00:49:58.279Z,12.31
2017-04-11T00:50:02.706Z,12.34
2017-04-11T00:50:06.912Z,12.33
2017-04-11T00:50:11.223Z,12.33
2017-04-11T00:50:15.653Z,12.3
2017-04-11T00:50:20.077Z,12.31
2017-04-11T00:50:24.500Z,12.3
2017-04-11T00:50:28.923Z,12.34
2017-04-11T00:50:33.399Z,12.26
2017-04-11T00:50:37.470Z,12.29
2017-04-11T00:50:41.897Z,12.25
2017-04-11T00:50:46.322Z,12.37
2017-04-11T00:50:50.754Z,12.36
2017-04-11T00:50:55.186Z,12.25
2017-04-11T00:50:59.372Z,12.37
2017-04-11T00:51:03.802Z,12.31
2017-04-11T00:51:08.160Z,12.3
2017-04-11T00:51:12.587Z,12.34
2017-04-11T00:51:17.017Z,12.29
2017-04-11T00:51:21.453Z,12.31
2017-04-11T00:51:25.905Z,12.25
2017-04-11T00:51:30.331Z,12.3
2017-04-11T00:51:34.754Z,12.18
2017-04-11T00:51:39.178Z,12.31
2017-04-11T00:51:43.599Z,12.25
2017-04-11T00:51:47.802Z,12.33
2017-04-11T00:51:52.238Z,12.19
2017-04-11T00:51:56.558Z,12.26
2017-04-11T00:52:00.863Z,12.21
2017-04-11T00:52:05.317Z,12.21
2017-04-11T00:52:09.739Z,12.23
2017-04-11T00:52:14.055Z,12.22
2017-04-11T00:52:18.362Z,12.23
2017-04-11T00:52:22.788Z,12.21
2017-04-11T00:52:27.095Z,12.25
2017-04-11T00:52:31.520Z,12.29
2017-04-11T00:52:35.829Z,12.23
2017-04-11T00:52:40.252Z,12.23
2017-04-11T00:52:44.677Z,12.21
2017-04-11T00:52:48.987Z,12.22
2017-04-11T00:52:53.412Z,12.18
2017-04-11T00:52:57.838Z,12.21
2017-04-11T00:53:02.270Z,12.29
2017-04-11T00:53:06.711Z,12.18
2017-04-11T00:53:11.145Z,12.19
2017-04-11T00:53:15.579Z,12.25
2017-04-11T00:53:20.011Z,12.22
2017-04-11T00:53:24.329Z,12.23
2017-04-11T00:53:28.751Z,12.22
2017-04-11T00:53:33.064Z,12.19
2017-04-11T00:53:37.373Z,12.26
2017-04-11T00:53:41.804Z,12.29
2017-04-11T00:53:46.233Z,12.18
2017-04-11T00:53:50.654Z,12.22
2017-04-11T00:53:55.081Z,12.23
2017-04-11T00:53:59.411Z,12.29
2017-04-11T00:54:03.835Z,12.21
2017-04-11T00:54:08.028Z,12.22
2017-04-11T00:54:12.454Z,12.23
2017-04-11T00:54:16.886Z,12.18
2017-04-11T00:54:21.314Z,12.26
2017-04-11T00:54:25.748Z,12.29
2017-04-11T00:54:30.059Z,12.22
2017-04-11T00:54:34.371Z,12.22
2017-04-11T00:54:38.677Z,12.19
2017-04-11T00:54:43.113Z,12.22
2017-04-11T00:54:47.422Z,12.29
2017-04-11T00:54:51.871Z,12.23
2017-04-11T00:54:56.300Z,12.23
2017-04-11T00:55:00.737Z,12.16
2017-04-11T00:55:05.297Z,12.19
2017-04-11T00:55:09.621Z,12.16
2017-04-11T00:55:14.045Z,12.18
2017-04-11T00:55:18.472Z,12.18
2017-04-11T00:55:22.896Z,12.22
2017-04-11T00:55:27.205Z,12.19
2017-04-11T00:55:31.627Z,12.16
2017-04-11T00:55:36.048Z,12.11
2017-04-11T00:55:40.475Z,12.16
2017-04-11T00:55:44.910Z,12.15
2017-04-11T00:55:49.342Z,12.18
2017-04-11T00:55:53.768Z,12.12
2017-04-11T00:55:58.193Z,12.12
2017-04-11T00:56:02.673Z,12.16
2017-04-11T00:56:07.097Z,12.18
2017-04-11T00:56:11.523Z,12.16
2017-04-11T00:56:15.947Z,12.16
2017-04-11T00:56:20.259Z,12.15
2017-04-11T00:56:24.680Z,12.16
2017-04-11T00:56:29.106Z,12.19